sensor_id;sensor_type;location;lat;lon;timestamp;pressure;altitude;pressure_sealevel;temperature;humidity
35716;BME280;21840;44.920;8.616;2023-04-28T00:00:07;100641.03;;;17.99;43.48
35716;BME280;21840;44.920;8.616;2023-04-28T00:02:33;100635.38;;;18.02;43.38
35716;BME280;21840;44.920;8.616;2023-04-28T00:04:58;100640.00;;;18.08;42.95
35716;BME280;21840;44.920;8.616;2023-04-28T00:07:23;100636.03;;;17.73;44.01
35716;BME280;21840;44.920;8.616;2023-04-28T00:09:49;100644.13;;;17.87;43.87
35716;BME280;21840;44.920;8.616;2023-04-28T00:12:14;100641.25;;;17.97;43.77
35716;BME280;21840;44.920;8.616;2023-04-28T00:14:40;100648.66;;;18.02;43.40
35716;BME280;21840;44.920;8.616;2023-04-28T00:17:05;100646.97;;;17.78;43.96
35716;BME280;21840;44.920;8.616;2023-04-28T00:19:30;100651.31;;;18.02;43.38
35716;BME280;21840;44.920;8.616;2023-04-28T00:21:56;100640.81;;;17.85;43.75
35716;BME280;21840;44.920;8.616;2023-04-28T00:24:21;100649.25;;;18.12;43.01
35716;BME280;21840;44.920;8.616;2023-04-28T00:26:46;100652.19;;;17.63;43.48
35716;BME280;21840;44.920;8.616;2023-04-28T00:29:12;100643.66;;;17.76;43.30
35716;BME280;21840;44.920;8.616;2023-04-28T00:31:37;100655.72;;;17.86;43.20
35716;BME280;21840;44.920;8.616;2023-04-28T00:34:02;100648.88;;;17.61;43.83
35716;BME280;21840;44.920;8.616;2023-04-28T00:36:28;100647.09;;;17.53;43.25
35716;BME280;21840;44.920;8.616;2023-04-28T00:38:57;100652.44;;;17.45;42.76
35716;BME280;21840;44.920;8.616;2023-04-28T00:41:22;100661.69;;;17.01;43.58
35716;BME280;21840;44.920;8.616;2023-04-28T00:43:48;100662.31;;;17.20;43.06
35716;BME280;21840;44.920;8.616;2023-04-28T00:46:20;100659.41;;;16.90;43.32
35716;BME280;21840;44.920;8.616;2023-04-28T00:48:46;100661.22;;;16.73;43.36
35716;BME280;21840;44.920;8.616;2023-04-28T00:51:12;100665.50;;;16.74;43.85
35716;BME280;21840;44.920;8.616;2023-04-28T00:53:37;100655.41;;;16.94;43.43
35716;BME280;21840;44.920;8.616;2023-04-28T00:56:03;100652.38;;;17.14;43.10
35716;BME280;21840;44.920;8.616;2023-04-28T00:58:28;100642.34;;;17.32;42.79
35716;BME280;21840;44.920;8.616;2023-04-28T01:01:00;100639.06;;;17.22;42.86
35716;BME280;21840;44.920;8.616;2023-04-28T01:03:26;100639.78;;;17.16;43.14
35716;BME280;21840;44.920;8.616;2023-04-28T01:05:51;100640.91;;;17.21;43.30
35716;BME280;21840;44.920;8.616;2023-04-28T01:08:21;100641.25;;;17.58;42.47
35716;BME280;21840;44.920;8.616;2023-04-28T01:10:47;100639.34;;;17.75;42.20
35716;BME280;21840;44.920;8.616;2023-04-28T01:13:29;100632.13;;;17.60;42.54
35716;BME280;21840;44.920;8.616;2023-04-28T01:15:55;100632.03;;;17.45;42.85
35716;BME280;21840;44.920;8.616;2023-04-28T01:18:21;100640.00;;;17.45;42.99
35716;BME280;21840;44.920;8.616;2023-04-28T01:20:46;100640.00;;;17.45;43.18
35716;BME280;21840;44.920;8.616;2023-04-28T01:23:13;100633.03;;;17.36;42.96
35716;BME280;21840;44.920;8.616;2023-04-28T01:25:39;100635.56;;;17.30;42.99
35716;BME280;21840;44.920;8.616;2023-04-28T01:28:05;100643.47;;;17.46;42.67
35716;BME280;21840;44.920;8.616;2023-04-28T01:30:31;100648.47;;;17.41;42.91
35716;BME280;21840;44.920;8.616;2023-04-28T01:32:56;100648.72;;;17.62;42.47
35716;BME280;21840;44.920;8.616;2023-04-28T01:35:22;100644.47;;;17.45;43.48
35716;BME280;21840;44.920;8.616;2023-04-28T01:37:47;100637.78;;;17.57;44.17
35716;BME280;21840;44.920;8.616;2023-04-28T01:40:13;100646.16;;;17.38;44.91
35716;BME280;21840;44.920;8.616;2023-04-28T01:42:39;100653.63;;;17.34;44.59
35716;BME280;21840;44.920;8.616;2023-04-28T01:45:04;100652.50;;;17.29;44.69
35716;BME280;21840;44.920;8.616;2023-04-28T01:47:30;100664.59;;;17.31;45.03
35716;BME280;21840;44.920;8.616;2023-04-28T01:49:55;100663.50;;;17.17;45.35
35716;BME280;21840;44.920;8.616;2023-04-28T01:52:21;100669.06;;;17.31;44.96
35716;BME280;21840;44.920;8.616;2023-04-28T01:54:48;100674.47;;;16.73;45.78
35716;BME280;21840;44.920;8.616;2023-04-28T01:57:14;100670.50;;;16.45;46.60
35716;BME280;21840;44.920;8.616;2023-04-28T01:59:40;100680.25;;;17.01;45.57
35716;BME280;21840;44.920;8.616;2023-04-28T02:02:05;100682.44;;;16.98;45.20
35716;BME280;21840;44.920;8.616;2023-04-28T02:04:32;100688.25;;;16.85;45.16
35716;BME280;21840;44.920;8.616;2023-04-28T02:06:57;100696.19;;;17.01;44.83
35716;BME280;21840;44.920;8.616;2023-04-28T02:09:23;100702.66;;;16.99;44.95
35716;BME280;21840;44.920;8.616;2023-04-28T02:11:49;100697.00;;;17.10;44.96
35716;BME280;21840;44.920;8.616;2023-04-28T02:14:15;100697.69;;;16.96;45.64
35716;BME280;21840;44.920;8.616;2023-04-28T02:16:40;100705.50;;;16.97;45.97
35716;BME280;21840;44.920;8.616;2023-04-28T02:19:05;100700.69;;;16.93;46.14
35716;BME280;21840;44.920;8.616;2023-04-28T02:21:31;100702.66;;;16.66;46.47
35716;BME280;21840;44.920;8.616;2023-04-28T02:23:57;100701.19;;;16.80;46.05
35716;BME280;21840;44.920;8.616;2023-04-28T02:26:22;100708.78;;;16.99;45.89
35716;BME280;21840;44.920;8.616;2023-04-28T02:28:50;100707.13;;;16.98;45.66
35716;BME280;21840;44.920;8.616;2023-04-28T02:31:15;100704.81;;;17.03;45.56
35716;BME280;21840;44.920;8.616;2023-04-28T02:33:41;100702.31;;;17.02;45.57
35716;BME280;21840;44.920;8.616;2023-04-28T02:36:07;100705.97;;;16.68;46.78
35716;BME280;21840;44.920;8.616;2023-04-28T02:38:33;100722.38;;;16.72;47.36
35716;BME280;21840;44.920;8.616;2023-04-28T02:43:24;100713.09;;;16.43;47.48
35716;BME280;21840;44.920;8.616;2023-04-28T02:45:50;100711.09;;;16.37;46.91
35716;BME280;21840;44.920;8.616;2023-04-28T02:48:15;100708.38;;;16.04;47.59
35716;BME280;21840;44.920;8.616;2023-04-28T02:50:43;100711.00;;;15.88;47.59
35716;BME280;21840;44.920;8.616;2023-04-28T02:53:10;100709.41;;;16.11;47.20
35716;BME280;21840;44.920;8.616;2023-04-28T02:55:35;100705.75;;;16.12;47.28
35716;BME280;21840;44.920;8.616;2023-04-28T02:58:01;100707.41;;;16.22;46.97
35716;BME280;21840;44.920;8.616;2023-04-28T03:00:26;100699.84;;;16.35;46.12
35716;BME280;21840;44.920;8.616;2023-04-28T03:02:52;100696.19;;;16.52;45.64
35716;BME280;21840;44.920;8.616;2023-04-28T03:05:17;100688.59;;;16.57;45.65
35716;BME280;21840;44.920;8.616;2023-04-28T03:07:42;100681.13;;;16.61;45.33
35716;BME280;21840;44.920;8.616;2023-04-28T03:10:08;100676.16;;;16.58;45.40
35716;BME280;21840;44.920;8.616;2023-04-28T03:12:36;100676.97;;;16.58;45.56
35716;BME280;21840;44.920;8.616;2023-04-28T03:15:02;100673.16;;;16.69;45.10
35716;BME280;21840;44.920;8.616;2023-04-28T03:17:27;100684.25;;;16.65;44.82
35716;BME280;21840;44.920;8.616;2023-04-28T03:19:52;100680.97;;;16.63;45.12
35716;BME280;21840;44.920;8.616;2023-04-28T03:22:18;100684.28;;;16.81;44.93
35716;BME280;21840;44.920;8.616;2023-04-28T03:24:43;100686.78;;;16.83;44.85
35716;BME280;21840;44.920;8.616;2023-04-28T03:27:08;100681.78;;;16.79;44.79
35716;BME280;21840;44.920;8.616;2023-04-28T03:29:35;100684.13;;;16.83;44.69
35716;BME280;21840;44.920;8.616;2023-04-28T03:32:04;100681.47;;;16.83;44.48
35716;BME280;21840;44.920;8.616;2023-04-28T03:34:30;100680.97;;;16.63;45.11
35716;BME280;21840;44.920;8.616;2023-04-28T03:36:55;100689.06;;;16.77;45.34
35716;BME280;21840;44.920;8.616;2023-04-28T03:39:26;100679.63;;;16.67;45.70
35716;BME280;21840;44.920;8.616;2023-04-28T03:41:51;100673.16;;;16.86;45.44
35716;BME280;21840;44.920;8.616;2023-04-28T03:44:49;100681.28;;;16.84;46.09
35716;BME280;21840;44.920;8.616;2023-04-28T03:47:14;100681.63;;;16.81;46.04
35716;BME280;21840;44.920;8.616;2023-04-28T03:49:43;100685.25;;;16.31;47.62
35716;BME280;21840;44.920;8.616;2023-04-28T03:52:08;100689.56;;;16.40;47.13
35716;BME280;21840;44.920;8.616;2023-04-28T03:54:34;100697.84;;;16.37;46.46
35716;BME280;21840;44.920;8.616;2023-04-28T03:57:00;100694.88;;;16.40;46.41
35716;BME280;21840;44.920;8.616;2023-04-28T03:59:26;100695.50;;;16.26;46.11
35716;BME280;21840;44.920;8.616;2023-04-28T04:01:51;100689.34;;;16.17;47.13
35716;BME280;21840;44.920;8.616;2023-04-28T04:04:17;100695.31;;;16.19;47.05
35716;BME280;21840;44.920;8.616;2023-04-28T04:06:43;100696.38;;;15.76;48.07
35716;BME280;21840;44.920;8.616;2023-04-28T04:09:09;100691.00;;;15.67;48.38
35716;BME280;21840;44.920;8.616;2023-04-28T04:11:36;100692.06;;;15.74;48.01
35716;BME280;21840;44.920;8.616;2023-04-28T04:14:01;100690.38;;;15.65;48.03
35716;BME280;21840;44.920;8.616;2023-04-28T04:16:27;100684.66;;;15.44;48.35
35716;BME280;21840;44.920;8.616;2023-04-28T04:18:55;100692.94;;;15.49;48.12
35716;BME280;21840;44.920;8.616;2023-04-28T04:21:26;100694.38;;;15.69;47.94
35716;BME280;21840;44.920;8.616;2023-04-28T04:23:52;100697.31;;;15.66;47.90
35716;BME280;21840;44.920;8.616;2023-04-28T04:26:18;100699.75;;;15.60;48.14
35716;BME280;21840;44.920;8.616;2023-04-28T04:28:45;100694.56;;;15.42;47.96
35716;BME280;21840;44.920;8.616;2023-04-28T04:31:10;100692.72;;;15.42;47.92
35716;BME280;21840;44.920;8.616;2023-04-28T04:33:36;100706.13;;;15.41;47.92
35716;BME280;21840;44.920;8.616;2023-04-28T04:36:03;100713.66;;;15.27;47.72
35716;BME280;21840;44.920;8.616;2023-04-28T04:38:29;100720.69;;;15.45;47.14
35716;BME280;21840;44.920;8.616;2023-04-28T04:40:56;100720.47;;;15.64;46.86
35716;BME280;21840;44.920;8.616;2023-04-28T04:43:21;100719.75;;;15.54;46.97
35716;BME280;21840;44.920;8.616;2023-04-28T04:45:49;100723.78;;;15.66;46.86
35716;BME280;21840;44.920;8.616;2023-04-28T04:48:14;100731.28;;;15.71;46.49
35716;BME280;21840;44.920;8.616;2023-04-28T04:50:40;100735.25;;;15.41;46.75
35716;BME280;21840;44.920;8.616;2023-04-28T04:53:06;100746.78;;;15.66;46.25
35716;BME280;21840;44.920;8.616;2023-04-28T04:55:32;100739.47;;;15.94;45.63
35716;BME280;21840;44.920;8.616;2023-04-28T04:57:57;100739.81;;;15.99;45.62
35716;BME280;21840;44.920;8.616;2023-04-28T05:00:41;100746.28;;;16.05;45.42
35716;BME280;21840;44.920;8.616;2023-04-28T05:03:08;100726.50;;;15.74;45.93
35716;BME280;21840;44.920;8.616;2023-04-28T05:05:34;100727.09;;;15.68;46.58
35716;BME280;21840;44.920;8.616;2023-04-28T05:08:22;100736.81;;;15.94;46.14
35716;BME280;21840;44.920;8.616;2023-04-28T05:10:47;100733.56;;;16.08;45.91
35716;BME280;21840;44.920;8.616;2023-04-28T05:13:13;100739.56;;;16.27;45.58
35716;BME280;21840;44.920;8.616;2023-04-28T05:15:39;100735.59;;;16.31;45.11
35716;BME280;21840;44.920;8.616;2023-04-28T05:18:34;100727.94;;;16.11;45.76
35716;BME280;21840;44.920;8.616;2023-04-28T05:21:00;100718.53;;;16.33;45.06
35716;BME280;21840;44.920;8.616;2023-04-28T05:23:25;100726.31;;;16.27;45.23
35716;BME280;21840;44.920;8.616;2023-04-28T05:25:51;100733.97;;;15.87;46.14
35716;BME280;21840;44.920;8.616;2023-04-28T05:28:16;100731.72;;;16.01;45.80
35716;BME280;21840;44.920;8.616;2023-04-28T05:30:43;100726.88;;;15.88;46.40
35716;BME280;21840;44.920;8.616;2023-04-28T05:33:10;100726.91;;;16.04;46.02
35716;BME280;21840;44.920;8.616;2023-04-28T05:35:36;100729.44;;;16.22;45.52
35716;BME280;21840;44.920;8.616;2023-04-28T05:38:01;100729.16;;;16.50;45.09
35716;BME280;21840;44.920;8.616;2023-04-28T05:40:27;100723.34;;;16.54;45.10
35716;BME280;21840;44.920;8.616;2023-04-28T05:42:54;100719.72;;;16.64;44.63
35716;BME280;21840;44.920;8.616;2023-04-28T05:45:20;100721.06;;;16.92;44.38
35716;BME280;21840;44.920;8.616;2023-04-28T05:47:45;100727.06;;;16.78;44.81
35716;BME280;21840;44.920;8.616;2023-04-28T05:50:11;100727.72;;;16.88;45.07
35716;BME280;21840;44.920;8.616;2023-04-28T05:52:36;100733.00;;;17.13;44.52
35716;BME280;21840;44.920;8.616;2023-04-28T05:55:02;100737.97;;;17.08;44.62
35716;BME280;21840;44.920;8.616;2023-04-28T05:57:28;100736.31;;;17.15;44.26
35716;BME280;21840;44.920;8.616;2023-04-28T05:59:54;100742.09;;;17.18;44.42
35716;BME280;21840;44.920;8.616;2023-04-28T06:02:19;100738.13;;;17.22;44.08
35716;BME280;21840;44.920;8.616;2023-04-28T06:04:44;100738.25;;;17.37;43.76
35716;BME280;21840;44.920;8.616;2023-04-28T06:07:10;100745.13;;;17.63;43.43
35716;BME280;21840;44.920;8.616;2023-04-28T06:09:36;100740.53;;;17.49;43.83
35716;BME280;21840;44.920;8.616;2023-04-28T06:12:02;100751.13;;;17.57;43.96
35716;BME280;21840;44.920;8.616;2023-04-28T06:14:28;100758.06;;;17.66;43.76
35716;BME280;21840;44.920;8.616;2023-04-28T06:16:54;100753.41;;;17.68;43.60
35716;BME280;21840;44.920;8.616;2023-04-28T06:19:20;100758.69;;;17.76;43.24
35716;BME280;21840;44.920;8.616;2023-04-28T06:21:45;100763.38;;;17.66;43.60
35716;BME280;21840;44.920;8.616;2023-04-28T06:24:12;100776.75;;;17.33;44.48
35716;BME280;21840;44.920;8.616;2023-04-28T06:26:39;100769.72;;;17.57;43.88
35716;BME280;21840;44.920;8.616;2023-04-28T06:29:07;100775.53;;;17.52;44.15
35716;BME280;21840;44.920;8.616;2023-04-28T06:31:33;100767.78;;;17.34;44.65
35716;BME280;21840;44.920;8.616;2023-04-28T06:33:59;100748.31;;;17.58;44.32
35716;BME280;21840;44.920;8.616;2023-04-28T06:36:24;100752.69;;;17.27;44.86
35716;BME280;21840;44.920;8.616;2023-04-28T06:38:50;100759.16;;;17.40;44.38
35716;BME280;21840;44.920;8.616;2023-04-28T06:41:15;100746.13;;;17.62;44.03
35716;BME280;21840;44.920;8.616;2023-04-28T06:43:44;100745.25;;;17.78;43.67
35716;BME280;21840;44.920;8.616;2023-04-28T06:46:16;100745.41;;;17.84;43.42
35716;BME280;21840;44.920;8.616;2023-04-28T06:48:41;100738.25;;;18.16;42.89
35716;BME280;21840;44.920;8.616;2023-04-28T06:51:06;100747.38;;;18.22;42.54
35716;BME280;21840;44.920;8.616;2023-04-28T06:53:33;100741.13;;;18.38;42.27
35716;BME280;21840;44.920;8.616;2023-04-28T06:55:59;100741.25;;;18.67;41.81
35716;BME280;21840;44.920;8.616;2023-04-28T06:58:26;100731.88;;;18.71;41.54
35716;BME280;21840;44.920;8.616;2023-04-28T07:00:51;100738.22;;;18.93;41.22
35716;BME280;21840;44.920;8.616;2023-04-28T07:03:17;100739.63;;;19.04;40.94
35716;BME280;21840;44.920;8.616;2023-04-28T07:05:42;100746.00;;;19.33;40.43
35716;BME280;21840;44.920;8.616;2023-04-28T07:08:08;100746.72;;;19.27;40.19
35716;BME280;21840;44.920;8.616;2023-04-28T07:10:34;100738.47;;;19.51;39.76
35716;BME280;21840;44.920;8.616;2023-04-28T07:12:59;100747.09;;;19.53;39.35
35716;BME280;21840;44.920;8.616;2023-04-28T07:15:24;100740.84;;;19.61;39.31
35716;BME280;21840;44.920;8.616;2023-04-28T07:17:50;100742.06;;;19.73;39.02
35716;BME280;21840;44.920;8.616;2023-04-28T07:20:15;100749.94;;;19.81;39.04
35716;BME280;21840;44.920;8.616;2023-04-28T07:22:40;100755.38;;;19.88;39.14
35716;BME280;21840;44.920;8.616;2023-04-28T07:25:06;100745.72;;;20.02;38.85
35716;BME280;21840;44.920;8.616;2023-04-28T07:27:31;100752.59;;;20.33;38.36
35716;BME280;21840;44.920;8.616;2023-04-28T07:29:57;100753.34;;;20.26;38.25
35716;BME280;21840;44.920;8.616;2023-04-28T07:32:22;100754.38;;;20.25;38.53
35716;BME280;21840;44.920;8.616;2023-04-28T07:34:48;100758.13;;;20.53;38.09
35716;BME280;21840;44.920;8.616;2023-04-28T07:37:13;100763.06;;;20.34;38.77
35716;BME280;21840;44.920;8.616;2023-04-28T07:39:39;100761.16;;;20.28;38.89
35716;BME280;21840;44.920;8.616;2023-04-28T07:42:05;100762.16;;;20.42;38.81
35716;BME280;21840;44.920;8.616;2023-04-28T07:44:31;100759.88;;;20.60;38.77
35716;BME280;21840;44.920;8.616;2023-04-28T07:46:57;100765.03;;;20.62;39.01
35716;BME280;21840;44.920;8.616;2023-04-28T07:49:22;100761.22;;;20.71;39.09
35716;BME280;21840;44.920;8.616;2023-04-28T07:51:48;100767.50;;;20.85;38.60
35716;BME280;21840;44.920;8.616;2023-04-28T07:54:13;100747.34;;;21.10;37.85
35716;BME280;21840;44.920;8.616;2023-04-28T07:56:39;100738.72;;;21.08;37.34
35716;BME280;21840;44.920;8.616;2023-04-28T07:59:04;100747.19;;;20.62;38.05
35716;BME280;21840;44.920;8.616;2023-04-28T08:01:29;100741.47;;;20.65;38.23
35716;BME280;21840;44.920;8.616;2023-04-28T08:03:55;100743.91;;;21.17;37.57
35716;BME280;21840;44.920;8.616;2023-04-28T08:06:20;100737.03;;;21.36;37.24
35716;BME280;21840;44.920;8.616;2023-04-28T08:08:46;100728.41;;;21.33;37.32
35716;BME280;21840;44.920;8.616;2023-04-28T08:11:11;100729.09;;;21.42;36.69
35716;BME280;21840;44.920;8.616;2023-04-28T08:13:36;100730.38;;;21.53;36.99
35716;BME280;21840;44.920;8.616;2023-04-28T08:16:02;100730.25;;;21.68;36.06
35716;BME280;21840;44.920;8.616;2023-04-28T08:18:27;100734.88;;;21.94;34.96
35716;BME280;21840;44.920;8.616;2023-04-28T08:20:52;100734.09;;;22.00;34.85
35716;BME280;21840;44.920;8.616;2023-04-28T08:23:18;100742.34;;;21.57;35.66
35716;BME280;21840;44.920;8.616;2023-04-28T08:25:44;100735.47;;;21.83;35.32
35716;BME280;21840;44.920;8.616;2023-04-28T08:28:12;100732.59;;;21.91;35.26
35716;BME280;21840;44.920;8.616;2023-04-28T08:30:38;100737.94;;;21.91;35.05
35716;BME280;21840;44.920;8.616;2023-04-28T08:33:04;100742.66;;;21.89;34.83
35716;BME280;21840;44.920;8.616;2023-04-28T08:35:29;100736.16;;;22.11;34.34
35716;BME280;21840;44.920;8.616;2023-04-28T08:37:55;100740.53;;;22.19;34.36
35716;BME280;21840;44.920;8.616;2023-04-28T08:40:20;100735.00;;;22.21;34.49
35716;BME280;21840;44.920;8.616;2023-04-28T08:42:46;100736.88;;;22.33;34.45
35716;BME280;21840;44.920;8.616;2023-04-28T08:45:14;100736.47;;;22.43;34.41
35716;BME280;21840;44.920;8.616;2023-04-28T08:47:40;100731.56;;;22.47;34.23
35716;BME280;21840;44.920;8.616;2023-04-28T08:50:10;100737.09;;;22.58;34.49
35716;BME280;21840;44.920;8.616;2023-04-28T08:52:36;100735.06;;;22.74;34.71
35716;BME280;21840;44.920;8.616;2023-04-28T08:55:09;100735.88;;;22.81;34.70
35716;BME280;21840;44.920;8.616;2023-04-28T08:57:38;100752.78;;;22.81;34.11
35716;BME280;21840;44.920;8.616;2023-04-28T09:00:04;100739.59;;;22.93;32.87
35716;BME280;21840;44.920;8.616;2023-04-28T09:02:30;100734.66;;;22.97;32.46
35716;BME280;21840;44.920;8.616;2023-04-28T09:04:56;100734.66;;;23.03;32.64
35716;BME280;21840;44.920;8.616;2023-04-28T09:07:21;100740.00;;;22.97;32.60
35716;BME280;21840;44.920;8.616;2023-04-28T09:09:47;100728.25;;;23.18;32.53
35716;BME280;21840;44.920;8.616;2023-04-28T09:12:12;100729.88;;;23.25;32.81
35716;BME280;21840;44.920;8.616;2023-04-28T09:14:38;100729.88;;;23.25;32.41
35716;BME280;21840;44.920;8.616;2023-04-28T09:17:10;100728.06;;;22.59;33.24
35716;BME280;21840;44.920;8.616;2023-04-28T09:19:37;100725.78;;;22.83;32.66
35716;BME280;21840;44.920;8.616;2023-04-28T09:22:03;100724.34;;;23.14;32.71
35716;BME280;21840;44.920;8.616;2023-04-28T09:26:57;100717.50;;;23.38;31.79
35716;BME280;21840;44.920;8.616;2023-04-28T09:29:23;100725.09;;;23.54;31.50
35716;BME280;21840;44.920;8.616;2023-04-28T09:31:48;100732.88;;;23.69;31.28
35716;BME280;21840;44.920;8.616;2023-04-28T09:34:14;100727.50;;;23.76;31.76
35716;BME280;21840;44.920;8.616;2023-04-28T09:36:39;100735.34;;;23.77;30.92
35716;BME280;21840;44.920;8.616;2023-04-28T09:39:04;100728.09;;;23.84;30.75
35716;BME280;21840;44.920;8.616;2023-04-28T09:44:15;100721.25;;;23.88;30.87
35716;BME280;21840;44.920;8.616;2023-04-28T09:46:41;100725.59;;;23.89;30.88
35716;BME280;21840;44.920;8.616;2023-04-28T09:49:07;100716.22;;;24.05;30.64
35716;BME280;21840;44.920;8.616;2023-04-28T09:51:33;100711.25;;;24.09;30.73
35716;BME280;21840;44.920;8.616;2023-04-28T09:53:59;100713.94;;;24.09;30.89
35716;BME280;21840;44.920;8.616;2023-04-28T09:56:27;100717.34;;;24.23;30.72
35716;BME280;21840;44.920;8.616;2023-04-28T09:58:57;100716.88;;;24.32;30.38
35716;BME280;21840;44.920;8.616;2023-04-28T10:01:31;100710.03;;;24.37;30.00
35716;BME280;21840;44.920;8.616;2023-04-28T10:03:56;100706.31;;;24.69;29.52
35716;BME280;21840;44.920;8.616;2023-04-28T10:06:23;100707.00;;;24.58;30.35
35716;BME280;21840;44.920;8.616;2023-04-28T10:08:49;100698.28;;;24.88;29.70
35716;BME280;21840;44.920;8.616;2023-04-28T10:11:16;100682.31;;;24.93;29.27
35716;BME280;21840;44.920;8.616;2023-04-28T10:13:41;100680.25;;;25.13;29.17
35716;BME280;21840;44.920;8.616;2023-04-28T10:16:08;100686.16;;;25.04;29.20
35716;BME280;21840;44.920;8.616;2023-04-28T10:18:34;100681.88;;;24.96;29.25
35716;BME280;21840;44.920;8.616;2023-04-28T10:21:00;100676.78;;;24.88;29.42
35716;BME280;21840;44.920;8.616;2023-04-28T10:26:10;100660.94;;;24.61;29.75
35716;BME280;21840;44.920;8.616;2023-04-28T10:28:35;100668.88;;;24.93;29.70
35716;BME280;21840;44.920;8.616;2023-04-28T10:31:14;100663.91;;;24.96;29.38
35716;BME280;21840;44.920;8.616;2023-04-28T10:33:39;100661.06;;;24.91;29.74
35716;BME280;21840;44.920;8.616;2023-04-28T10:36:05;100652.50;;;25.20;29.33
35716;BME280;21840;44.920;8.616;2023-04-28T10:38:31;100656.09;;;24.70;29.24
35716;BME280;21840;44.920;8.616;2023-04-28T10:40:57;100646.16;;;25.14;29.26
35716;BME280;21840;44.920;8.616;2023-04-28T10:48:17;100632.69;;;25.51;29.09
35716;BME280;21840;44.920;8.616;2023-04-28T10:54:13;100623.16;;;25.85;28.69
35716;BME280;21840;44.920;8.616;2023-04-28T10:56:25;100617.28;;;25.88;28.83
35716;BME280;21840;44.920;8.616;2023-04-28T11:01:23;100621.09;;;25.80;29.06
35716;BME280;21840;44.920;8.616;2023-04-28T11:06:43;100611.59;;;26.08;28.97
35716;BME280;21840;44.920;8.616;2023-04-28T11:12:23;100602.63;;;26.38;28.57
35716;BME280;21840;44.920;8.616;2023-04-28T11:16:50;100599.84;;;26.44;28.23
35716;BME280;21840;44.920;8.616;2023-04-28T11:19:22;100590.34;;;26.30;28.52
35716;BME280;21840;44.920;8.616;2023-04-28T11:21:51;100595.84;;;26.23;29.00
35716;BME280;21840;44.920;8.616;2023-04-28T11:24:17;100587.88;;;26.17;28.89
35716;BME280;21840;44.920;8.616;2023-04-28T11:26:43;100582.84;;;26.20;28.71
35716;BME280;21840;44.920;8.616;2023-04-28T11:29:09;100573.84;;;26.27;28.52
35716;BME280;21840;44.920;8.616;2023-04-28T11:31:34;100578.97;;;26.28;28.88
35716;BME280;21840;44.920;8.616;2023-04-28T11:34:09;100571.00;;;26.10;29.29
35716;BME280;21840;44.920;8.616;2023-04-28T11:36:39;100574.28;;;26.00;29.38
35716;BME280;21840;44.920;8.616;2023-04-28T11:39:05;100565.06;;;26.31;29.07
35716;BME280;21840;44.920;8.616;2023-04-28T11:41:35;100568.31;;;26.33;28.83
35716;BME280;21840;44.920;8.616;2023-04-28T11:44:16;100563.31;;;26.25;29.75
35716;BME280;21840;44.920;8.616;2023-04-28T11:46:54;100563.66;;;26.17;30.04
35716;BME280;21840;44.920;8.616;2023-04-28T11:49:21;100554.75;;;26.16;30.17
35716;BME280;21840;44.920;8.616;2023-04-28T11:51:52;100549.13;;;26.30;29.83
35716;BME280;21840;44.920;8.616;2023-04-28T11:54:19;100543.97;;;26.28;29.82
35716;BME280;21840;44.920;8.616;2023-04-28T11:56:45;100547.25;;;26.42;29.72
35716;BME280;21840;44.920;8.616;2023-04-28T11:59:11;100542.72;;;26.66;29.69
35716;BME280;21840;44.920;8.616;2023-04-28T12:01:47;100539.97;;;26.78;29.50
35716;BME280;21840;44.920;8.616;2023-04-28T12:04:12;100529.56;;;26.81;29.54
35716;BME280;21840;44.920;8.616;2023-04-28T12:06:38;100536.47;;;26.77;29.88
35716;BME280;21840;44.920;8.616;2023-04-28T12:09:16;100529.09;;;27.13;29.05
35716;BME280;21840;44.920;8.616;2023-04-28T12:11:52;100530.09;;;27.52;28.69
35716;BME280;21840;44.920;8.616;2023-04-28T12:14:18;100540.09;;;27.52;27.82
35716;BME280;21840;44.920;8.616;2023-04-28T12:16:43;100537.31;;;27.47;28.35
35716;BME280;21840;44.920;8.616;2023-04-28T12:19:10;100521.53;;;27.39;29.11
35716;BME280;21840;44.920;8.616;2023-04-28T12:21:37;100534.81;;;27.28;29.42
35716;BME280;21840;44.920;8.616;2023-04-28T12:24:13;100537.97;;;27.54;29.01
35716;BME280;21840;44.920;8.616;2023-04-28T12:26:39;100533.47;;;27.60;28.82
35716;BME280;21840;44.920;8.616;2023-04-28T12:29:04;100531.69;;;27.48;29.08
35716;BME280;21840;44.920;8.616;2023-04-28T12:31:29;100521.34;;;27.17;29.14
35716;BME280;21840;44.920;8.616;2023-04-28T12:33:55;100528.84;;;27.26;29.43
35716;BME280;21840;44.920;8.616;2023-04-28T12:36:20;100514.97;;;27.35;29.39
35716;BME280;21840;44.920;8.616;2023-04-28T12:38:46;100519.97;;;27.43;28.99
35716;BME280;21840;44.920;8.616;2023-04-28T12:41:12;100527.34;;;27.19;29.74
35716;BME280;21840;44.920;8.616;2023-04-28T12:43:38;100522.31;;;26.70;30.54
35716;BME280;21840;44.920;8.616;2023-04-28T12:46:04;100523.97;;;27.00;29.97
35716;BME280;21840;44.920;8.616;2023-04-28T12:48:32;100531.19;;;27.23;29.92
35716;BME280;21840;44.920;8.616;2023-04-28T12:50:58;100522.25;;;27.34;29.28
35716;BME280;21840;44.920;8.616;2023-04-28T12:53:24;100535.78;;;27.22;29.74
35716;BME280;21840;44.920;8.616;2023-04-28T12:55:50;100525.75;;;27.06;29.89
35716;BME280;21840;44.920;8.616;2023-04-28T12:58:15;100534.34;;;26.91;30.47
35716;BME280;21840;44.920;8.616;2023-04-28T13:00:41;100516.91;;;27.22;30.12
35716;BME280;21840;44.920;8.616;2023-04-28T13:03:07;100510.22;;;27.13;30.02
35716;BME280;21840;44.920;8.616;2023-04-28T13:05:32;100517.06;;;27.04;29.75
35716;BME280;21840;44.920;8.616;2023-04-28T13:07:59;100519.03;;;27.08;29.37
35716;BME280;21840;44.920;8.616;2023-04-28T13:10:24;100527.97;;;27.38;29.06
35716;BME280;21840;44.920;8.616;2023-04-28T13:12:50;100526.59;;;27.52;28.99
35716;BME280;21840;44.920;8.616;2023-04-28T13:15:16;100513.94;;;27.52;29.21